Time;durP1;ratioP1;P1;durP2;ratioP2;P2;SDS_P1;SDS_P2;PMS_P1;PMS_P2;Temp;Humidity;BMP_temperature;BMP_pressure;BME280_temperature;BME280_humidity;BME280_pressure;Samples;Min_cycle;Max_cycle;Signal;HPM_P1;HPM_P2
2021/11/18 00:01:33;;;;;;;7.50;5.10;;;5.80;99.90;;;;;;5017969;28;20163;-81
2021/11/18 00:03:59;;;;;;;7.93;5.70;;;5.80;99.90;;;;;;5017190;28;20179;-80
2021/11/18 00:06:25;;;;;;;7.73;5.17;;;5.80;99.90;;;;;;5018512;28;20214;-80
2021/11/18 00:08:51;;;;;;;5.07;4.57;;;5.70;99.90;;;;;;5017357;28;20275;-78
2021/11/18 00:11:21;;;;;;;4.97;4.47;;;5.60;99.90;;;;;;5017139;28;20195;-79
2021/11/18 00:13:51;;;;;;;6.33;5.60;;;5.60;99.90;;;;;;5018707;28;20177;-79
2021/11/18 00:16:17;;;;;;;5.23;4.73;;;5.70;99.90;;;;;;5018131;28;20183;-79
2021/11/18 00:18:44;;;;;;;4.93;4.53;;;5.70;99.90;;;;;;5018032;28;20191;-79
2021/11/18 00:21:20;;;;;;;5.30;4.80;;;5.70;99.90;;;;;;5016757;28;20194;-79
2021/11/18 00:23:52;;;;;;;5.73;5.13;;;5.80;99.90;;;;;;5004526;28;20182;-80
2021/11/18 00:26:19;;;;;;;5.47;4.97;;;5.80;99.90;;;;;;5017872;28;20191;-79
2021/11/18 00:28:45;;;;;;;5.33;4.70;;;5.80;99.90;;;;;;5016025;28;20202;-79
2021/11/18 00:31:14;;;;;;;5.93;5.33;;;5.90;99.90;;;;;;5018398;28;20655;-79
2021/11/18 00:33:40;;;;;;;5.10;4.60;;;5.80;99.90;;;;;;5016451;28;20642;-79
2021/11/18 00:36:07;;;;;;;5.30;4.37;;;5.60;99.90;;;;;;5018099;28;20203;-79
2021/11/18 00:38:34;;;;;;;5.37;4.50;;;5.60;99.90;;;;;;5018178;28;20282;-79
2021/11/18 00:41:00;;;;;;;5.13;4.63;;;5.60;99.90;;;;;;5016137;28;20648;-79
2021/11/18 00:43:26;;;;;;;5.87;4.00;;;5.80;99.90;;;;;;5016477;28;20266;-79
2021/11/18 00:45:53;;;;;;;5.30;4.80;;;5.60;99.90;;;;;;5017820;28;20187;-80
2021/11/18 00:48:20;;;;;;;5.30;4.80;;;5.60;99.90;;;;;;5017748;28;20202;-79
2021/11/18 00:50:48;;;;;;;5.20;4.80;;;5.60;99.90;;;;;;5016293;28;20194;-79
2021/11/18 00:53:14;;;;;;;6.00;5.40;;;5.70;99.90;;;;;;5015654;28;20190;-79
2021/11/18 00:55:40;;;;;;;6.47;5.37;;;5.70;99.90;;;;;;5016984;28;20286;-79
2021/11/18 00:58:07;;;;;;;6.10;5.57;;;5.90;99.90;;;;;;5017153;28;20200;-79
2021/11/18 01:00:35;;;;;;;6.07;5.53;;;5.80;99.90;;;;;;5016090;28;20186;-79
2021/11/18 01:03:02;;;;;;;8.23;6.23;;;5.80;99.90;;;;;;5017517;28;20633;-79
2021/11/18 01:05:31;;;;;;;6.63;5.93;;;6.00;99.90;;;;;;5015969;28;20562;-79
2021/11/18 01:07:58;;;;;;;5.83;5.23;;;5.70;99.90;;;;;;5016067;28;20210;-79
2021/11/18 01:10:28;;;;;;;5.90;5.30;;;5.60;99.90;;;;;;5017695;28;20279;-79
2021/11/18 01:12:54;;;;;;;6.47;5.80;;;5.60;99.90;;;;;;5017260;28;20224;-79
2021/11/18 01:15:25;;;;;;;6.17;5.47;;;5.40;99.90;;;;;;5015777;28;20209;-79
2021/11/18 01:17:51;;;;;;;5.73;5.23;;;5.40;99.90;;;;;;5015842;28;20237;-79
2021/11/18 01:20:19;;;;;;;6.47;5.30;;;5.40;99.90;;;;;;5017170;28;20190;-79
2021/11/18 01:22:45;;;;;;;7.03;6.03;;;5.30;99.90;;;;;;5017374;28;20179;-79
2021/11/18 01:25:13;;;;;;;5.63;5.03;;;5.30;99.90;;;;;;5015880;28;20190;-78
2021/11/18 01:27:39;;;;;;;6.13;5.53;;;5.30;99.90;;;;;;5016934;28;20186;-78
2021/11/18 01:30:09;;;;;;;6.30;5.70;;;5.30;99.90;;;;;;5036504;23;20221;-75
2021/11/18 01:32:35;;;;;;;5.80;5.00;;;5.30;99.90;;;;;;5013148;28;20170;-74
2021/11/18 01:35:01;;;;;;;6.40;5.30;;;5.30;99.90;;;;;;5013058;28;20539;-75
2021/11/18 01:37:27;;;;;;;5.97;5.33;;;5.40;99.90;;;;;;5011292;28;20669;-75
2021/11/18 01:39:52;;;;;;;5.57;5.07;;;5.50;99.90;;;;;;4980877;28;20201;-76
2021/11/18 01:42:18;;;;;;;5.63;5.00;;;5.50;99.90;;;;;;4989938;28;20514;-76
2021/11/18 01:44:48;;;;;;;5.87;5.27;;;5.70;99.90;;;;;;4992914;28;20175;-76
2021/11/18 01:47:14;;;;;;;6.10;5.50;;;5.60;99.90;;;;;;4995617;28;20602;-76
2021/11/18 01:49:43;;;;;;;5.30;4.80;;;5.60;99.90;;;;;;4995304;28;20179;-77
2021/11/18 01:52:14;;;;;;;5.57;5.07;;;5.60;99.90;;;;;;4980542;28;20275;-76
2021/11/18 01:54:41;;;;;;;5.43;4.93;;;5.50;99.90;;;;;;4992103;28;20253;-76
2021/11/18 01:57:09;;;;;;;5.67;5.17;;;5.60;99.90;;;;;;4996797;28;20210;-76
2021/11/18 01:59:39;;;;;;;5.30;4.80;;;5.70;99.90;;;;;;4996828;28;20176;-76
2021/11/18 02:02:06;;;;;;;5.90;5.37;;;5.60;99.90;;;;;;4997179;28;20175;-76
2021/11/18 02:04:32;;;;;;;5.60;5.10;;;5.60;99.90;;;;;;4996444;28;20190;-76
2021/11/18 02:07:09;;;;;;;5.87;4.90;;;5.60;99.90;;;;;;4995668;28;20382;-76
2021/11/18 02:09:43;;;;;;;6.00;5.40;;;5.50;99.90;;;;;;4997085;28;20184;-76
2021/11/18 02:12:13;;;;;;;5.40;4.90;;;5.30;99.90;;;;;;4993090;28;20199;-76
2021/11/18 02:14:39;;;;;;;6.93;5.33;;;5.30;99.90;;;;;;4996549;28;20203;-76
2021/11/18 02:17:11;;;;;;;5.00;4.50;;;5.30;99.90;;;;;;4996624;28;20669;-76
2021/11/18 02:19:41;;;;;;;5.50;5.00;;;5.30;99.90;;;;;;4995302;28;20269;-76
2021/11/18 02:22:07;;;;;;;5.60;4.87;;;5.30;99.90;;;;;;4995305;28;20183;-76
2021/11/18 02:24:41;;;;;;;6.70;5.20;;;5.20;99.90;;;;;;4995357;28;20192;-76
2021/11/18 02:27:09;;;;;;;7.77;5.17;;;5.20;99.90;;;;;;4995069;28;20237;-76
2021/11/18 02:29:35;;;;;;;6.07;4.93;;;5.10;99.90;;;;;;4994965;28;20234;-76
2021/11/18 02:32:04;;;;;;;5.00;4.50;;;5.10;99.90;;;;;;4996321;28;20183;-76
2021/11/18 02:34:35;;;;;;;4.83;4.33;;;5.10;99.90;;;;;;4996136;28;20202;-76
2021/11/18 02:37:01;;;;;;;5.60;5.00;;;5.00;99.90;;;;;;4996403;28;20657;-76
2021/11/18 02:39:26;;;;;;;5.50;4.50;;;5.00;99.90;;;;;;4994941;28;20211;-76
2021/11/18 02:41:52;;;;;;;6.97;4.93;;;5.00;99.90;;;;;;4996174;28;20241;-76
2021/11/18 02:44:18;;;;;;;7.10;4.67;;;4.80;99.90;;;;;;4994845;28;20187;-76
2021/11/18 02:46:44;;;;;;;5.50;5.00;;;4.90;99.90;;;;;;4992973;28;20282;-76
2021/11/18 02:49:09;;;;;;;5.20;4.70;;;5.00;99.90;;;;;;4991083;28;20276;-76
2021/11/18 02:51:35;;;;;;;4.30;3.90;;;5.10;99.90;;;;;;4992967;28;20212;-76
2021/11/18 02:54:03;;;;;;;4.83;4.33;;;5.20;99.90;;;;;;4993914;28;20234;-76
2021/11/18 02:56:29;;;;;;;5.37;4.83;;;5.10;99.90;;;;;;4994177;28;20207;-75
2021/11/18 02:58:55;;;;;;;5.53;5.03;;;5.10;99.90;;;;;;4995567;28;20247;-76
2021/11/18 03:01:29;;;;;;;5.00;4.47;;;5.10;99.90;;;;;;4995808;28;20196;-76
2021/11/18 03:03:55;;;;;;;4.93;4.47;;;5.10;99.90;;;;;;4993842;28;20175;-76
2021/11/18 03:06:21;;;;;;;5.77;5.17;;;5.10;99.90;;;;;;4994475;28;20265;-76
2021/11/18 03:08:47;;;;;;;6.73;5.23;;;5.20;99.90;;;;;;4994497;28;20202;-77
2021/11/18 03:11:14;;;;;;;5.27;4.77;;;5.30;99.90;;;;;;4994421;28;20206;-76
2021/11/18 03:13:40;;;;;;;5.57;5.00;;;5.20;99.90;;;;;;4980769;28;20178;-76
2021/11/18 03:16:06;;;;;;;6.30;5.13;;;5.10;99.90;;;;;;4995703;28;20182;-76
2021/11/18 03:18:32;;;;;;;5.60;4.90;;;5.10;99.90;;;;;;4994845;28;20633;-76
2021/11/18 03:21:00;;;;;;;5.47;4.63;;;5.00;99.90;;;;;;4995439;28;20252;-76
2021/11/18 03:23:27;;;;;;;5.20;4.70;;;5.10;99.90;;;;;;4995465;28;20173;-76
2021/11/18 03:25:53;;;;;;;6.33;4.70;;;5.20;99.90;;;;;;4995394;28;20206;-76
2021/11/18 03:28:21;;;;;;;5.50;5.00;;;5.10;99.90;;;;;;4995332;28;20245;-77
2021/11/18 03:30:48;;;;;;;4.83;4.43;;;5.20;99.90;;;;;;4995289;28;20238;-76
2021/11/18 03:33:24;;;;;;;6.63;4.67;;;5.30;99.90;;;;;;4995242;28;20226;-76
2021/11/18 03:35:51;;;;;;;6.30;5.30;;;5.20;99.90;;;;;;4994039;28;20201;-76
2021/11/18 03:38:18;;;;;;;5.63;5.00;;;5.10;99.90;;;;;;4995223;28;20174;-76
2021/11/18 03:40:50;;;;;;;5.47;4.97;;;5.10;99.90;;;;;;4994248;28;20745;-76
2021/11/18 03:43:17;;;;;;;5.57;4.77;;;5.00;99.90;;;;;;4993834;28;20178;-76
2021/11/18 03:45:43;;;;;;;6.37;5.77;;;5.10;99.90;;;;;;4995223;28;20182;-76
2021/11/18 03:48:09;;;;;;;5.00;4.50;;;5.20;99.90;;;;;;4994829;28;20182;-76
2021/11/18 03:50:37;;;;;;;6.07;5.47;;;5.20;99.90;;;;;;4994738;28;20208;-76
2021/11/18 03:53:03;;;;;;;6.13;5.30;;;5.20;99.90;;;;;;4994969;28;20214;-76
2021/11/18 03:55:29;;;;;;;5.77;5.03;;;5.30;99.90;;;;;;4990359;28;20254;-76
2021/11/18 03:57:57;;;;;;;6.87;5.00;;;5.30;99.90;;;;;;4994828;28;20213;-76
2021/11/18 04:00:29;;;;;;;4.43;4.10;;;5.30;99.90;;;;;;4994657;28;20207;-76
2021/11/18 04:02:56;;;;;;;6.60;5.07;;;5.40;99.90;;;;;;4994902;28;20714;-75
2021/11/18 04:05:22;;;;;;;5.77;5.27;;;5.50;99.90;;;;;;4994604;28;20182;-76
2021/11/18 04:07:48;;;;;;;5.93;5.33;;;5.30;99.90;;;;;;4973855;28;20556;-76
2021/11/18 04:10:19;;;;;;;7.47;5.93;;;5.30;99.90;;;;;;4994444;28;20201;-76
2021/11/18 04:12:46;;;;;;;5.70;5.10;;;5.40;99.90;;;;;;4994744;28;20183;-76
2021/11/18 04:15:13;;;;;;;6.37;5.23;;;5.30;99.90;;;;;;4994310;28;20198;-75
2021/11/18 04:17:40;;;;;;;6.10;5.50;;;5.40;99.90;;;;;;4994482;28;20181;-76
2021/11/18 04:20:08;;;;;;;5.30;4.80;;;5.40;99.90;;;;;;4994265;28;20205;-76
2021/11/18 04:22:35;;;;;;;5.40;4.90;;;5.40;99.90;;;;;;4993113;28;20653;-76
2021/11/18 04:25:01;;;;;;;6.23;5.20;;;5.50;99.90;;;;;;4976814;28;20191;-76
2021/11/18 04:27:26;;;;;;;5.97;5.37;;;5.40;99.90;;;;;;4977823;28;20196;-76
2021/11/18 04:29:52;;;;;;;6.30;5.70;;;5.50;99.90;;;;;;4994196;28;20298;-76
2021/11/18 04:32:22;;;;;;;5.33;4.83;;;5.50;99.90;;;;;;4994246;28;20189;-77
2021/11/18 04:34:49;;;;;;;5.73;5.23;;;5.60;99.90;;;;;;4992868;28;20246;-76
2021/11/18 04:37:14;;;;;;;7.27;5.43;;;5.50;99.90;;;;;;4992803;28;20180;-76
2021/11/18 04:39:40;;;;;;;6.97;5.53;;;5.50;99.90;;;;;;4994419;28;20180;-76
2021/11/18 04:42:07;;;;;;;5.93;5.20;;;5.50;99.90;;;;;;4994078;28;20184;-76
2021/11/18 04:44:35;;;;;;;7.50;5.33;;;5.50;99.90;;;;;;4994088;28;20184;-76
2021/11/18 04:47:07;;;;;;;5.77;5.13;;;5.60;99.90;;;;;;4992780;28;20192;-77
2021/11/18 04:49:33;;;;;;;5.30;4.73;;;5.60;99.90;;;;;;4994034;28;20277;-77
2021/11/18 04:51:59;;;;;;;4.93;4.53;;;5.50;99.90;;;;;;4994023;28;20187;-76
2021/11/18 04:54:25;;;;;;;5.33;4.83;;;5.60;99.90;;;;;;4992526;28;20199;-76
2021/11/18 04:56:51;;;;;;;6.10;5.43;;;5.50;99.90;;;;;;4976726;28;20179;-76
2021/11/18 04:59:16;;;;;;;5.20;4.70;;;5.60;99.90;;;;;;4993811;28;20672;-76
2021/11/18 05:01:42;;;;;;;5.40;4.90;;;5.70;99.90;;;;;;4992318;28;20615;-76
2021/11/18 05:04:11;;;;;;;6.50;5.90;;;5.50;99.90;;;;;;4993700;28;20191;-76
2021/11/18 05:06:37;;;;;;;4.97;4.53;;;5.50;99.90;;;;;;4987065;28;20182;-77
2021/11/18 05:09:06;;;;;;;4.83;4.43;;;5.50;99.90;;;;;;4991149;28;20250;-76
2021/11/18 05:11:32;;;;;;;4.90;4.50;;;5.50;99.90;;;;;;4992487;28;20704;-76
2021/11/18 05:13:58;;;;;;;4.53;4.13;;;5.50;99.90;;;;;;4993548;28;20540;-76
2021/11/18 05:16:24;;;;;;;5.53;5.03;;;5.40;99.90;;;;;;4991600;28;20167;-77
2021/11/18 05:18:50;;;;;;;5.13;4.63;;;5.50;99.90;;;;;;4992432;28;20654;-76
2021/11/18 05:21:19;;;;;;;6.90;5.30;;;5.20;99.90;;;;;;4991675;28;20204;-77
2021/11/18 05:23:46;;;;;;;5.87;4.97;;;5.10;99.90;;;;;;4996219;28;20175;-76
2021/11/18 05:26:14;;;;;;;8.43;5.87;;;5.00;99.90;;;;;;4997316;28;20177;-76
2021/11/18 05:28:42;;;;;;;6.87;6.17;;;5.00;99.90;;;;;;4996856;28;20283;-76
2021/11/18 05:31:08;;;;;;;6.43;4.80;;;5.00;99.90;;;;;;4997323;28;20579;-76
2021/11/18 05:33:34;;;;;;;5.13;4.57;;;5.10;99.90;;;;;;4997468;28;20186;-76
2021/11/18 05:36:01;;;;;;;5.67;5.20;;;5.20;99.90;;;;;;4996919;28;20212;-77
2021/11/18 05:38:27;;;;;;;5.60;4.87;;;5.20;99.90;;;;;;4997428;28;20179;-76
2021/11/18 05:40:53;;;;;;;5.57;5.07;;;5.30;99.90;;;;;;4997268;28;20323;-76
2021/11/18 05:43:25;;;;;;;4.70;4.30;;;5.10;99.90;;;;;;4996043;28;20680;-76
2021/11/18 05:45:52;;;;;;;6.23;4.93;;;5.10;99.90;;;;;;4995850;28;20260;-77
2021/11/18 05:48:19;;;;;;;5.40;4.70;;;4.90;99.90;;;;;;4994224;28;20176;-76
2021/11/18 05:50:51;;;;;;;5.70;4.67;;;5.00;99.90;;;;;;4997016;28;20197;-76
2021/11/18 05:53:20;;;;;;;5.37;4.87;;;5.00;99.90;;;;;;4997142;28;20208;-75
2021/11/18 05:55:47;;;;;;;5.63;5.03;;;5.10;99.90;;;;;;4994662;28;20202;-76
2021/11/18 05:58:13;;;;;;;5.67;5.17;;;5.20;99.90;;;;;;4996605;28;20175;-77
2021/11/18 06:00:39;;;;;;;7.03;5.57;;;5.20;99.90;;;;;;4995614;28;20244;-75
2021/11/18 06:03:05;;;;;;;6.23;5.70;;;5.30;99.90;;;;;;4994215;28;20691;-76
2021/11/18 06:05:32;;;;;;;6.50;5.90;;;5.20;99.90;;;;;;4995873;28;20219;-75
2021/11/18 06:07:57;;;;;;;6.60;6.00;;;5.30;99.90;;;;;;4992212;28;20675;-75
2021/11/18 06:10:25;;;;;;;7.63;5.60;;;5.30;99.90;;;;;;4996314;28;20209;-75
2021/11/18 06:12:52;;;;;;;9.87;7.00;;;5.30;99.90;;;;;;4986412;28;20548;-76
2021/11/18 06:15:18;;;;;;;6.77;6.17;;;5.30;99.90;;;;;;4995094;28;20212;-75
2021/11/18 06:17:44;;;;;;;6.77;6.17;;;5.20;99.90;;;;;;4990525;28;20242;-76
2021/11/18 06:20:12;;;;;;;7.30;6.60;;;5.20;99.90;;;;;;4994031;28;20194;-75
2021/11/18 06:22:40;;;;;;;8.47;5.57;;;5.20;99.90;;;;;;4995296;28;20561;-75
2021/11/18 06:25:07;;;;;;;7.73;7.03;;;5.20;99.90;;;;;;4996234;28;20184;-76
2021/11/18 06:27:36;;;;;;;7.63;6.93;;;5.30;99.90;;;;;;4996193;28;20189;-76
2021/11/18 06:30:04;;;;;;;10.33;6.37;;;5.30;99.90;;;;;;4978350;28;20218;-75
2021/11/18 06:32:30;;;;;;;8.13;7.13;;;5.30;99.90;;;;;;4986735;28;20198;-75
2021/11/18 06:34:57;;;;;;;20.13;13.03;;;5.20;99.90;;;;;;4997340;28;20202;-76
2021/11/18 06:37:23;;;;;;;15.07;13.40;;;5.10;99.90;;;;;;4995442;28;20320;-76
2021/11/18 06:39:49;;;;;;;6.80;5.23;;;5.00;99.90;;;;;;4996397;28;20200;-76
2021/11/18 06:42:14;;;;;;;6.40;5.70;;;5.00;99.90;;;;;;4995805;28;20254;-76
2021/11/18 06:44:43;;;;;;;9.33;7.70;;;5.00;99.90;;;;;;4995963;28;20190;-76
2021/11/18 06:47:10;;;;;;;7.23;6.53;;;4.90;99.90;;;;;;4995708;28;20566;-76
2021/11/18 06:49:36;;;;;;;6.90;6.00;;;4.80;99.90;;;;;;4995214;28;20181;-76
2021/11/18 06:52:04;;;;;;;8.77;6.27;;;4.90;99.90;;;;;;4995870;28;20203;-76
2021/11/18 06:54:31;;;;;;;8.03;7.03;;;4.90;99.90;;;;;;4994542;28;20634;-76
2021/11/18 06:56:57;;;;;;;7.53;6.70;;;5.00;99.90;;;;;;4993597;28;20191;-76
2021/11/18 06:59:23;;;;;;;31.10;18.20;;;5.00;99.90;;;;;;4975567;28;20238;-77
2021/11/18 07:01:50;;;;;;;13.20;9.70;;;4.80;99.90;;;;;;4977763;28;20194;-76
2021/11/18 07:04:16;;;;;;;8.90;6.47;;;4.70;99.90;;;;;;4977506;28;20232;-77
2021/11/18 07:06:42;;;;;;;26.13;16.47;;;4.80;99.90;;;;;;4977881;28;20545;-76
2021/11/18 07:09:10;;;;;;;11.57;8.80;;;4.60;99.90;;;;;;4994982;28;20179;-76
2021/11/18 07:11:36;;;;;;;9.00;7.90;;;4.70;99.90;;;;;;4994803;28;20218;-77
2021/11/18 07:14:03;;;;;;;11.43;8.87;;;4.70;99.90;;;;;;4995264;28;20616;-76
2021/11/18 07:16:29;;;;;;;10.20;8.40;;;4.80;99.90;;;;;;4995581;28;20202;-76
2021/11/18 07:18:55;;;;;;;6.83;6.13;;;4.90;99.90;;;;;;4994398;28;20186;-76
2021/11/18 07:21:23;;;;;;;18.93;10.90;;;4.90;99.90;;;;;;4995033;28;20202;-75
2021/11/18 07:23:55;;;;;;;7.83;7.03;;;4.90;99.90;;;;;;4994655;28;20233;-76
2021/11/18 07:26:21;;;;;;;9.33;6.80;;;4.80;99.90;;;;;;4994228;28;20187;-76
2021/11/18 07:28:47;;;;;;;8.03;7.30;;;4.70;99.90;;;;;;4994148;28;20183;-75
2021/11/18 07:31:14;;;;;;;8.83;7.93;;;4.70;99.90;;;;;;4995186;28;20230;-76
2021/11/18 07:33:41;;;;;;;10.07;9.17;;;4.90;99.90;;;;;;4996356;28;20653;-76
2021/11/18 07:36:07;;;;;;;10.60;9.60;;;5.10;99.90;;;;;;4994596;28;20208;-76
2021/11/18 07:38:35;;;;;;;9.83;8.80;;;5.10;99.90;;;;;;4994096;28;20210;-76
2021/11/18 07:41:02;;;;;;;9.13;8.20;;;5.10;99.90;;;;;;4992010;28;20206;-77
2021/11/18 07:43:31;;;;;;;9.63;8.73;;;5.10;99.90;;;;;;4992176;28;20175;-76
2021/11/18 07:46:00;;;;;;;9.70;8.70;;;5.20;99.90;;;;;;4976864;28;20186;-76
2021/11/18 07:48:26;;;;;;;8.63;7.83;;;5.20;99.90;;;;;;4992141;28;20237;-76
2021/11/18 07:50:52;;;;;;;8.07;7.30;;;5.20;99.90;;;;;;4994499;28;20296;-76
2021/11/18 07:53:17;;;;;;;8.60;7.80;;;5.30;99.90;;;;;;4994595;28;20258;-76
2021/11/18 07:55:44;;;;;;;10.37;8.30;;;5.30;99.90;;;;;;4993656;28;20233;-76
2021/11/18 07:58:11;;;;;;;8.53;7.73;;;5.30;99.90;;;;;;4994815;28;20178;-76
2021/11/18 08:00:37;;;;;;;8.90;8.13;;;5.40;99.90;;;;;;4993580;28;20551;-77
2021/11/18 08:03:08;;;;;;;8.73;7.90;;;5.50;99.90;;;;;;4993403;28;20179;-76
2021/11/18 08:05:34;;;;;;;8.97;8.17;;;5.50;99.90;;;;;;4991581;28;20190;-76
2021/11/18 08:08:00;;;;;;;8.33;7.63;;;5.60;99.90;;;;;;4992597;28;20281;-76
2021/11/18 08:10:26;;;;;;;9.13;7.90;;;5.60;99.90;;;;;;4973091;28;20697;-75
2021/11/18 08:12:52;;;;;;;8.67;7.87;;;5.70;99.90;;;;;;4986424;28;20264;-76
2021/11/18 08:15:18;;;;;;;8.70;7.80;;;5.70;99.90;;;;;;4976428;28;20195;-76
2021/11/18 08:17:44;;;;;;;9.03;7.03;;;5.80;99.90;;;;;;4994268;28;20183;-76
2021/11/18 08:20:12;;;;;;;9.63;7.37;;;5.90;99.90;;;;;;4994272;28;20222;-76
2021/11/18 08:22:38;;;;;;;9.00;8.10;;;5.90;99.90;;;;;;4994576;28;20180;-76
2021/11/18 08:25:04;;;;;;;10.27;8.27;;;5.90;99.90;;;;;;4993620;28;20334;-75
2021/11/18 08:27:32;;;;;;;9.03;8.13;;;6.00;99.90;;;;;;4994440;28;20194;-76
2021/11/18 08:29:58;;;;;;;8.37;7.47;;;6.10;99.90;;;;;;4993848;28;20203;-77
2021/11/18 08:32:24;;;;;;;8.57;7.77;;;6.00;99.90;;;;;;4994340;28;20260;-76
2021/11/18 08:34:50;;;;;;;9.47;8.47;;;5.90;99.90;;;;;;4993998;28;20210;-76
2021/11/18 08:37:17;;;;;;;8.60;7.80;;;6.00;99.90;;;;;;4994088;28;20191;-76
2021/11/18 08:39:43;;;;;;;11.00;8.37;;;6.10;99.90;;;;;;4995438;28;20179;-76
2021/11/18 08:42:12;;;;;;;8.70;7.80;;;6.00;99.90;;;;;;4994047;28;20560;-76
2021/11/18 08:44:38;;;;;;;9.47;7.60;;;6.10;99.90;;;;;;4995367;28;20261;-76
2021/11/18 08:47:06;;;;;;;8.97;8.07;;;6.20;99.90;;;;;;4993861;28;20261;-76
2021/11/18 08:49:33;;;;;;;8.17;7.37;;;6.10;99.90;;;;;;4993997;28;20238;-76
2021/11/18 08:52:08;;;;;;;8.80;8.00;;;6.20;99.90;;;;;;4990420;28;20180;-76
2021/11/18 08:54:36;;;;;;;8.10;7.40;;;6.20;99.90;;;;;;4990116;28;20205;-76
2021/11/18 08:57:03;;;;;;;7.53;6.83;;;6.20;99.90;;;;;;4992210;28;20251;-76
2021/11/18 08:59:29;;;;;;;7.73;6.93;;;6.20;99.90;;;;;;4992005;28;20175;-76
2021/11/18 09:01:59;;;;;;;9.37;7.70;;;6.20;99.90;;;;;;4976213;28;20196;-76
2021/11/18 09:04:25;;;;;;;8.00;7.20;;;6.10;99.90;;;;;;4991411;28;20182;-76
2021/11/18 09:06:52;;;;;;;8.27;7.37;;;6.20;99.90;;;;;;4992241;28;20187;-76
2021/11/18 09:09:21;;;;;;;8.93;8.00;;;6.20;99.90;;;;;;4993112;28;20310;-75
2021/11/18 09:11:48;;;;;;;8.20;7.33;;;6.20;99.90;;;;;;4993450;28;20278;-76
2021/11/18 09:14:15;;;;;;;8.30;7.50;;;6.30;99.90;;;;;;4993762;28;20207;-76
2021/11/18 09:16:41;;;;;;;8.73;7.83;;;6.30;99.90;;;;;;4993768;28;20181;-77
2021/11/18 09:19:10;;;;;;;8.93;8.03;;;6.20;99.90;;;;;;4993691;28;20306;-76
2021/11/18 09:21:37;;;;;;;8.40;7.60;;;6.30;99.90;;;;;;4993529;28;20253;-76
2021/11/18 09:24:20;;;;;;;12.27;7.73;;;6.30;99.90;;;;;;4993594;28;20237;-76
2021/11/18 09:26:49;;;;;;;9.07;7.80;;;6.30;99.90;;;;;;4993635;28;20180;-76
2021/11/18 09:29:15;;;;;;;8.50;7.70;;;6.30;99.90;;;;;;4993410;28;20645;-77
2021/11/18 09:31:43;;;;;;;9.60;8.70;;;6.40;99.90;;;;;;4990275;28;20275;-76
2021/11/18 09:34:10;;;;;;;8.67;7.77;;;6.40;99.90;;;;;;4992188;28;20711;-77
2021/11/18 09:36:35;;;;;;;10.93;9.07;;;6.40;99.90;;;;;;4993663;28;20181;-77
2021/11/18 09:39:04;;;;;;;11.67;10.10;;;6.40;99.90;;;;;;4993526;28;20613;-77
2021/11/18 09:41:51;;;;;;;11.73;10.17;;;6.50;99.90;;;;;;4975939;28;20196;-76
2021/11/18 09:44:31;;;;;;;11.23;9.47;;;6.50;99.90;;;;;;4992171;28;20184;-76
2021/11/18 09:47:37;;;;;;;9.87;8.87;;;6.70;99.90;;;;;;4992274;28;20663;-76
2021/11/18 09:50:19;;;;;;;10.00;9.00;;;6.70;99.90;;;;;;4993173;28;20194;-76
2021/11/18 09:53:04;;;;;;;13.27;10.67;;;6.80;99.90;;;;;;4992114;28;20183;-76
2021/11/18 09:55:46;;;;;;;12.27;10.50;;;6.70;99.90;;;;;;4992489;28;20733;-76
2021/11/18 09:58:19;;;;;;;11.40;10.23;;;6.70;99.90;;;;;;4993455;28;20605;-77
2021/11/18 10:01:18;;;;;;;11.53;10.33;;;6.70;99.90;;;;;;4993691;28;20219;-77
2021/11/18 10:04:19;;;;;;;12.57;10.33;;;6.80;99.90;;;;;;4992609;28;20180;-77
2021/11/18 10:06:47;;;;;;;11.47;10.27;;;6.80;99.90;;;;;;4925292;28;20186;-77
2021/11/18 10:09:16;;;;;;;11.67;10.50;;;6.90;99.90;;;;;;4997246;28;20248;-77
2021/11/18 10:11:45;;;;;;;10.57;9.30;;;7.00;99.90;;;;;;4992734;28;20191;-77
2021/11/18 10:14:29;;;;;;;13.87;10.23;;;6.90;99.90;;;;;;4997103;28;20168;-77
2021/11/18 10:17:01;;;;;;;10.63;9.53;;;7.00;99.90;;;;;;4996367;28;20179;-77
2021/11/18 10:19:34;;;;;;;14.47;9.83;;;7.00;99.90;;;;;;4996133;28;20580;-78
2021/11/18 10:22:00;;;;;;;12.13;9.57;;;7.00;99.90;;;;;;4996533;28;20183;-76
2021/11/18 10:24:32;;;;;;;10.97;9.40;;;7.00;99.90;;;;;;4996703;28;20258;-76
2021/11/18 10:27:12;;;;;;;10.63;9.47;;;7.00;99.90;;;;;;4996568;28;20172;-76
2021/11/18 10:30:07;;;;;;;10.50;9.23;;;7.10;99.90;;;;;;4995027;28;20589;-77
2021/11/18 10:33:01;;;;;;;9.30;8.40;;;7.10;99.90;;;;;;4982739;28;20190;-76
2021/11/18 10:35:32;;;;;;;9.87;8.87;;;7.20;99.90;;;;;;4996244;28;20349;-76
2021/11/18 10:38:21;;;;;;;10.77;9.00;;;7.20;99.90;;;;;;4996571;28;20184;-77
2021/11/18 10:41:13;;;;;;;12.37;8.77;;;7.30;99.90;;;;;;4978772;28;20674;-76
2021/11/18 10:43:39;;;;;;;10.63;9.33;;;7.30;99.90;;;;;;4978153;28;20650;-76
2021/11/18 10:46:31;;;;;;;9.70;8.60;;;7.40;99.90;;;;;;4996607;28;20204;-76
2021/11/18 10:48:59;;;;;;;9.27;8.23;;;7.40;99.90;;;;;;4996697;28;20172;-77
2021/11/18 10:51:51;;;;;;;10.63;8.37;;;7.40;99.90;;;;;;4995302;28;20204;-76
2021/11/18 10:54:18;;;;;;;9.83;8.70;;;7.40;99.90;;;;;;4994416;28;20590;-76
2021/11/18 10:56:58;;;;;;;10.20;9.20;;;7.40;99.90;;;;;;4978272;28;20195;-77
2021/11/18 10:59:37;;;;;;;9.90;8.90;;;7.40;99.90;;;;;;4995954;28;20266;-79
2021/11/18 11:02:33;;;;;;;10.63;9.57;;;7.40;99.90;;;;;;4996439;28;20180;-76
2021/11/18 11:05:21;;;;;;;11.00;10.00;;;7.40;99.90;;;;;;4996265;28;20180;-77
2021/11/18 11:07:48;;;;;;;8.97;8.17;;;7.30;99.90;;;;;;4993275;28;20231;-78
2021/11/18 11:10:17;;;;;;;9.30;8.47;;;7.20;99.90;;;;;;4997146;28;20233;-76
2021/11/18 11:13:24;;;;;;;9.80;8.80;;;7.10;99.90;;;;;;4995350;28;20209;-76
2021/11/18 11:16:27;;;;;;;9.33;8.43;;;7.20;99.90;;;;;;4993258;28;20243;-78
2021/11/18 11:18:56;;;;;;;9.63;8.70;;;7.20;99.90;;;;;;4975666;28;20199;-76
2021/11/18 11:21:39;;;;;;;10.27;9.23;;;7.10;99.90;;;;;;4995235;28;20202;-77
2021/11/18 11:24:26;;;;;;;9.80;8.80;;;7.10;99.90;;;;;;4992345;28;20176;-77
2021/11/18 11:27:29;;;;;;;58.37;28.67;;;7.10;99.90;;;;;;4992230;28;20169;-77
2021/11/18 11:29:58;;;;;;;10.57;9.50;;;7.10;99.90;;;;;;4995002;28;20210;-76
2021/11/18 11:32:27;;;;;;;9.97;8.97;;;7.20;99.90;;;;;;4995318;28;20176;-76
2021/11/18 11:35:29;;;;;;;10.83;9.70;;;7.20;99.90;;;;;;4995334;28;20673;-76
2021/11/18 11:38:21;;;;;;;9.60;8.17;;;7.40;99.90;;;;;;4993892;28;20676;-76
2021/11/18 11:41:25;;;;;;;9.40;8.60;;;7.40;99.90;;;;;;4993849;28;20230;-76
2021/11/18 11:44:06;;;;;;;10.57;9.47;;;7.50;99.90;;;;;;4995162;28;20578;-76
2021/11/18 11:46:37;;;;;;;9.00;8.13;;;7.50;99.90;;;;;;4995048;28;20191;-76
2021/11/18 11:49:15;;;;;;;8.73;7.90;;;7.60;99.90;;;;;;4995078;28;20729;-76
2021/11/18 11:52:05;;;;;;;8.60;7.83;;;7.50;99.90;;;;;;4993552;28;20249;-76
2021/11/18 11:54:41;;;;;;;9.23;8.20;;;7.40;99.90;;;;;;4993631;28;20202;-76
2021/11/18 11:57:28;;;;;;;8.57;7.77;;;7.40;99.90;;;;;;4993612;28;20167;-76
2021/11/18 12:00:18;;;;;;;9.30;8.40;;;7.60;99.90;;;;;;4994544;28;20196;-77
2021/11/18 12:02:53;;;;;;;9.50;8.57;;;7.60;99.90;;;;;;4993532;28;20187;-76
2021/11/18 12:05:27;;;;;;;10.67;9.10;;;7.50;99.90;;;;;;4993372;28;20645;-76
2021/11/18 12:08:12;;;;;;;8.93;8.13;;;7.50;99.90;;;;;;4993466;28;20245;-76
2021/11/18 12:11:13;;;;;;;9.40;8.40;;;7.50;99.90;;;;;;4994492;28;20206;-76
2021/11/18 12:13:55;;;;;;;8.90;8.10;;;7.50;99.90;;;;;;4994442;28;20241;-76
2021/11/18 12:16:24;;;;;;;9.30;8.43;;;7.50;99.90;;;;;;4991402;28;20199;-76
2021/11/18 12:19:31;;;;;;;8.80;7.93;;;7.50;99.90;;;;;;4994229;28;20227;-76
2021/11/18 12:21:59;;;;;;;9.30;8.40;;;7.50;99.90;;;;;;4974177;28;20220;-77
2021/11/18 12:24:26;;;;;;;10.00;8.50;;;7.40;99.90;;;;;;4993104;28;20234;-77
2021/11/18 12:27:23;;;;;;;9.50;8.50;;;7.50;99.90;;;;;;4994336;28;20674;-77
2021/11/18 12:30:09;;;;;;;9.23;8.33;;;7.60;99.90;;;;;;4993942;28;20176;-77
2021/11/18 12:32:37;;;;;;;8.60;7.70;;;7.70;99.90;;;;;;4994199;28;20183;-76
2021/11/18 12:35:25;;;;;;;9.63;8.77;;;7.70;99.90;;;;;;4994016;28;20204;-77
2021/11/18 12:37:57;;;;;;;8.63;7.83;;;7.60;99.90;;;;;;4994147;28;20635;-76
2021/11/18 12:40:44;;;;;;;8.90;8.10;;;7.60;99.90;;;;;;4994143;28;20200;-77
2021/11/18 12:43:34;;;;;;;8.70;7.90;;;7.70;99.90;;;;;;4992882;28;20700;-77
2021/11/18 12:46:17;;;;;;;8.77;7.87;;;7.80;99.90;;;;;;4993990;28;20665;-77
2021/11/18 12:48:52;;;;;;;8.17;7.47;;;7.70;99.90;;;;;;4993962;28;20230;-77
2021/11/18 12:51:36;;;;;;;8.57;7.77;;;7.70;99.90;;;;;;4992650;28;20202;-77
2021/11/18 12:54:17;;;;;;;8.33;7.63;;;7.70;99.90;;;;;;4992606;28;20186;-76
2021/11/18 12:56:52;;;;;;;8.93;8.03;;;7.60;99.90;;;;;;4994301;28;20168;-76
2021/11/18 12:59:48;;;;;;;9.30;8.50;;;7.70;99.90;;;;;;4992566;28;20203;-76
2021/11/18 13:02:37;;;;;;;8.83;7.30;;;7.80;99.90;;;;;;4994040;28;20658;-76
2021/11/18 13:05:13;;;;;;;7.87;7.17;;;7.70;99.90;;;;;;4993727;28;20172;-76
2021/11/18 13:07:43;;;;;;;8.33;7.53;;;7.70;99.90;;;;;;4994016;28;20210;-75
2021/11/18 13:10:18;;;;;;;8.00;7.20;;;7.60;99.90;;;;;;4993689;28;20254;-74
2021/11/18 13:12:55;;;;;;;7.93;7.33;;;7.60;99.90;;;;;;4993719;28;20190;-76
2021/11/18 13:15:32;;;;;;;10.67;7.80;;;7.60;99.90;;;;;;4993802;28;20258;-76